sensor_id;sensor_type;location;lat;lon;timestamp;pressure;altitude;pressure_sealevel;temperature;humidity
64025;BME280;50266;57.446;26.936;2023-08-08T00:00:22;96863.22;;;18.01;100.0
64025;BME280;50266;57.446;26.936;2023-08-08T00:01:22;96867.64;;;18.02;100.0
64025;BME280;50266;57.446;26.936;2023-08-08T00:02:22;96867.98;;;18.02;100.0
64025;BME280;50266;57.446;26.936;2023-08-08T00:03:22;96867.75;;;18.01;100.0
64025;BME280;50266;57.446;26.936;2023-08-08T00:04:22;96868.36;;;18.01;100.0
64025;BME280;50266;57.446;26.936;2023-08-08T00:05:22;96864.31;;;18.01;100.0
64025;BME280;50266;57.446;26.936;2023-08-08T00:06:22;96861.28;;;18.01;100.0
64025;BME280;50266;57.446;26.936;2023-08-08T00:07:22;96848.45;;;18.0;100.0
64025;BME280;50266;57.446;26.936;2023-08-08T00:08:22;96856.61;;;18.03;100.0
64025;BME280;50266;57.446;26.936;2023-08-08T00:09:22;96853.73;;;18.01;100.0
64025;BME280;50266;57.446;26.936;2023-08-08T00:10:22;96858.7;;;18.0;100.0
64025;BME280;50266;57.446;26.936;2023-08-08T00:11:22;96858.96;;;18.0;100.0
64025;BME280;50266;57.446;26.936;2023-08-08T00:12:22;96868.02;;;17.98;100.0
64025;BME280;50266;57.446;26.936;2023-08-08T00:13:22;96856.8;;;17.96;100.0
64025;BME280;50266;57.446;26.936;2023-08-08T00:14:22;96852.71;;;17.98;100.0
64025;BME280;50266;57.446;26.936;2023-08-08T00:15:22;96850.62;;;17.98;100.0
64025;BME280;50266;57.446;26.936;2023-08-08T00:16:22;96853.81;;;17.98;100.0
64025;BME280;50266;57.446;26.936;2023-08-08T00:17:22;96860.28;;;18.01;100.0
64025;BME280;50266;57.446;26.936;2023-08-08T00:18:22;96852.49;;;18.03;100.0
64025;BME280;50266;57.446;26.936;2023-08-08T00:19:22;96855.29;;;18.05;100.0
64025;BME280;50266;57.446;26.936;2023-08-08T00:20:22;96858.42;;;18.05;100.0
64025;BME280;50266;57.446;26.936;2023-08-08T00:21:22;96854.75;;;18.03;100.0
64025;BME280;50266;57.446;26.936;2023-08-08T00:22:22;96852.48;;;18.04;100.0
64025;BME280;50266;57.446;26.936;2023-08-08T00:23:22;96849.12;;;18.04;100.0
64025;BME280;50266;57.446;26.936;2023-08-08T00:24:22;96853.16;;;18.03;100.0
64025;BME280;50266;57.446;26.936;2023-08-08T00:25:22;96860.45;;;18.04;100.0
64025;BME280;50266;57.446;26.936;2023-08-08T00:26:22;96855.77;;;18.06;100.0
64025;BME280;50266;57.446;26.936;2023-08-08T00:27:22;96860.27;;;18.05;100.0
64025;BME280;50266;57.446;26.936;2023-08-08T00:28:22;96849.41;;;18.0;100.0
64025;BME280;50266;57.446;26.936;2023-08-08T00:29:22;96852.98;;;17.98;100.0
64025;BME280;50266;57.446;26.936;2023-08-08T00:30:22;96853.23;;;17.95;100.0
64025;BME280;50266;57.446;26.936;2023-08-08T00:31:22;96849.44;;;17.93;100.0
64025;BME280;50266;57.446;26.936;2023-08-08T00:32:22;96851.94;;;17.9;100.0
64025;BME280;50266;57.446;26.936;2023-08-08T00:33:22;96856.42;;;17.89;100.0
64025;BME280;50266;57.446;26.936;2023-08-08T00:34:22;96844.5;;;17.89;100.0
64025;BME280;50266;57.446;26.936;2023-08-08T00:35:22;96856.11;;;17.86;100.0
64025;BME280;50266;57.446;26.936;2023-08-08T00:36:22;96843.7;;;17.86;100.0
64025;BME280;50266;57.446;26.936;2023-08-08T00:37:22;96842.33;;;17.81;100.0
64025;BME280;50266;57.446;26.936;2023-08-08T00:38:22;96847.5;;;17.79;100.0
64025;BME280;50266;57.446;26.936;2023-08-08T00:39:22;96830.27;;;17.8;100.0
64025;BME280;50266;57.446;26.936;2023-08-08T00:40:22;96837.19;;;17.75;100.0
64025;BME280;50266;57.446;26.936;2023-08-08T00:41:22;96829.48;;;17.72;100.0
64025;BME280;50266;57.446;26.936;2023-08-08T00:42:22;96827.35;;;17.73;100.0
64025;BME280;50266;57.446;26.936;2023-08-08T00:43:22;96822.92;;;17.72;100.0
64025;BME280;50266;57.446;26.936;2023-08-08T00:44:22;96825.23;;;17.7;100.0
64025;BME280;50266;57.446;26.936;2023-08-08T00:45:22;96825.73;;;17.71;100.0
64025;BME280;50266;57.446;26.936;2023-08-08T00:46:22;96820.59;;;17.66;100.0
64025;BME280;50266;57.446;26.936;2023-08-08T00:47:22;96818.11;;;17.64;100.0
64025;BME280;50266;57.446;26.936;2023-08-08T00:48:22;96814.17;;;17.64;100.0
64025;BME280;50266;57.446;26.936;2023-08-08T00:49:22;96821.0;;;17.63;100.0
64025;BME280;50266;57.446;26.936;2023-08-08T00:50:22;96824.47;;;17.62;100.0
64025;BME280;50266;57.446;26.936;2023-08-08T00:51:22;96814.34;;;17.65;100.0
64025;BME280;50266;57.446;26.936;2023-08-08T00:52:22;96812.73;;;17.64;100.0
64025;BME280;50266;57.446;26.936;2023-08-08T00:53:22;96818.89;;;17.63;100.0
64025;BME280;50266;57.446;26.936;2023-08-08T00:54:22;96822.2;;;17.59;100.0
64025;BME280;50266;57.446;26.936;2023-08-08T00:55:22;96848.39;;;17.59;100.0
64025;BME280;50266;57.446;26.936;2023-08-08T00:56:22;96830.09;;;17.52;100.0
64025;BME280;50266;57.446;26.936;2023-08-08T00:57:22;96836.81;;;17.55;100.0
64025;BME280;50266;57.446;26.936;2023-08-08T00:58:22;96854.52;;;17.49;100.0
64025;BME280;50266;57.446;26.936;2023-08-08T00:59:22;96846.93;;;17.47;100.0
64025;BME280;50266;57.446;26.936;2023-08-08T01:00:22;96872.67;;;17.21;100.0
64025;BME280;50266;57.446;26.936;2023-08-08T01:01:23;96874.74;;;16.99;100.0
64025;BME280;50266;57.446;26.936;2023-08-08T01:02:22;96893.7;;;16.92;100.0
64025;BME280;50266;57.446;26.936;2023-08-08T01:03:22;96897.25;;;16.78;100.0
64025;BME280;50266;57.446;26.936;2023-08-08T01:04:23;96892.14;;;16.7;100.0
64025;BME280;50266;57.446;26.936;2023-08-08T01:05:23;96901.77;;;16.6;100.0
64025;BME280;50266;57.446;26.936;2023-08-08T01:06:25;96910.34;;;16.54;100.0
64025;BME280;50266;57.446;26.936;2023-08-08T01:07:29;96926.77;;;16.5;100.0
64025;BME280;50266;57.446;26.936;2023-08-08T01:08:27;96907.79;;;16.3;100.0
64025;BME280;50266;57.446;26.936;2023-08-08T01:09:35;96914.86;;;16.18;100.0
64025;BME280;50266;57.446;26.936;2023-08-08T01:10:34;96927.92;;;16.13;100.0
64025;BME280;50266;57.446;26.936;2023-08-08T01:11:29;96926.33;;;16.13;100.0
64025;BME280;50266;57.446;26.936;2023-08-08T01:12:34;96933.34;;;16.02;100.0
64025;BME280;50266;57.446;26.936;2023-08-08T01:13:32;96945.92;;;15.94;100.0
64025;BME280;50266;57.446;26.936;2023-08-08T01:14:32;96930.45;;;15.89;100.0
64025;BME280;50266;57.446;26.936;2023-08-08T01:15:32;96946.02;;;15.84;100.0
64025;BME280;50266;57.446;26.936;2023-08-08T01:16:32;96938.77;;;15.75;100.0
64025;BME280;50266;57.446;26.936;2023-08-08T01:17:32;96945.2;;;15.66;100.0
64025;BME280;50266;57.446;26.936;2023-08-08T01:18:32;96962.09;;;15.62;100.0
64025;BME280;50266;57.446;26.936;2023-08-08T01:19:32;96958.92;;;15.62;100.0
64025;BME280;50266;57.446;26.936;2023-08-08T01:20:32;96969.3;;;15.62;100.0
64025;BME280;50266;57.446;26.936;2023-08-08T01:21:32;96962.89;;;15.57;100.0
64025;BME280;50266;57.446;26.936;2023-08-08T01:22:36;96973.73;;;15.58;100.0
64025;BME280;50266;57.446;26.936;2023-08-08T01:23:34;96986.0;;;15.56;100.0
64025;BME280;50266;57.446;26.936;2023-08-08T01:24:36;96975.91;;;15.52;100.0
64025;BME280;50266;57.446;26.936;2023-08-08T01:25:36;96985.48;;;15.54;100.0
64025;BME280;50266;57.446;26.936;2023-08-08T01:26:36;97009.77;;;15.47;100.0
64025;BME280;50266;57.446;26.936;2023-08-08T01:27:36;97018.4;;;15.47;100.0
64025;BME280;50266;57.446;26.936;2023-08-08T01:28:36;97016.67;;;15.5;100.0
64025;BME280;50266;57.446;26.936;2023-08-08T01:29:36;97018.09;;;15.45;100.0
64025;BME280;50266;57.446;26.936;2023-08-08T01:30:36;97036.89;;;15.46;100.0
64025;BME280;50266;57.446;26.936;2023-08-08T01:31:36;97034.56;;;15.4;100.0
64025;BME280;50266;57.446;26.936;2023-08-08T01:32:36;97039.25;;;15.46;100.0
64025;BME280;50266;57.446;26.936;2023-08-08T01:33:36;97047.87;;;15.4;100.0
64025;BME280;50266;57.446;26.936;2023-08-08T01:34:36;97055.8;;;15.41;100.0
64025;BME280;50266;57.446;26.936;2023-08-08T01:35:39;97057.48;;;15.37;100.0
64025;BME280;50266;57.446;26.936;2023-08-08T01:37:43;97067.62;;;15.39;100.0
64025;BME280;50266;57.446;26.936;2023-08-08T01:38:41;97058.44;;;15.34;100.0
64025;BME280;50266;57.446;26.936;2023-08-08T01:39:40;97073.59;;;15.33;100.0
64025;BME280;50266;57.446;26.936;2023-08-08T01:40:40;97084.0;;;15.3;100.0
64025;BME280;50266;57.446;26.936;2023-08-08T01:41:40;97087.17;;;15.3;100.0
64025;BME280;50266;57.446;26.936;2023-08-08T01:42:41;97080.59;;;15.35;100.0
64025;BME280;50266;57.446;26.936;2023-08-08T01:43:40;97086.47;;;15.34;100.0
64025;BME280;50266;57.446;26.936;2023-08-08T01:44:41;97085.65;;;15.32;100.0
64025;BME280;50266;57.446;26.936;2023-08-08T01:45:40;97088.84;;;15.31;100.0
64025;BME280;50266;57.446;26.936;2023-08-08T01:46:40;97097.48;;;15.23;100.0
64025;BME280;50266;57.446;26.936;2023-08-08T01:47:40;97096.62;;;15.14;100.0
64025;BME280;50266;57.446;26.936;2023-08-08T01:48:44;97097.56;;;15.17;100.0
64025;BME280;50266;57.446;26.936;2023-08-08T01:49:40;97108.83;;;15.25;100.0
64025;BME280;50266;57.446;26.936;2023-08-08T01:50:40;97112.18;;;15.18;100.0
64025;BME280;50266;57.446;26.936;2023-08-08T01:51:40;97121.69;;;15.16;100.0
64025;BME280;50266;57.446;26.936;2023-08-08T01:52:40;97122.44;;;15.16;100.0
64025;BME280;50266;57.446;26.936;2023-08-08T01:53:40;97138.41;;;15.17;100.0
64025;BME280;50266;57.446;26.936;2023-08-08T01:54:40;97130.14;;;15.15;100.0
64025;BME280;50266;57.446;26.936;2023-08-08T01:55:40;97144.88;;;15.13;100.0
64025;BME280;50266;57.446;26.936;2023-08-08T01:56:40;97151.12;;;15.16;100.0
64025;BME280;50266;57.446;26.936;2023-08-08T01:57:40;97152.96;;;15.2;100.0
64025;BME280;50266;57.446;26.936;2023-08-08T01:58:41;97163.42;;;15.19;100.0
64025;BME280;50266;57.446;26.936;2023-08-08T01:59:41;97157.56;;;15.16;100.0
64025;BME280;50266;57.446;26.936;2023-08-08T02:00:41;97171.47;;;15.13;100.0
64025;BME280;50266;57.446;26.936;2023-08-08T02:01:41;97176.61;;;15.17;100.0
64025;BME280;50266;57.446;26.936;2023-08-08T02:02:41;97181.82;;;15.08;100.0
64025;BME280;50266;57.446;26.936;2023-08-08T02:03:41;97180.34;;;15.12;100.0
64025;BME280;50266;57.446;26.936;2023-08-08T02:04:41;97182.89;;;15.09;100.0
64025;BME280;50266;57.446;26.936;2023-08-08T02:05:41;97192.18;;;15.01;100.0
64025;BME280;50266;57.446;26.936;2023-08-08T02:06:41;97191.8;;;14.98;100.0
64025;BME280;50266;57.446;26.936;2023-08-08T02:07:41;97190.92;;;14.96;100.0
64025;BME280;50266;57.446;26.936;2023-08-08T02:08:41;97192.52;;;15.01;100.0
64025;BME280;50266;57.446;26.936;2023-08-08T02:09:41;97208.5;;;15.0;100.0
64025;BME280;50266;57.446;26.936;2023-08-08T02:10:41;97207.58;;;15.0;100.0
64025;BME280;50266;57.446;26.936;2023-08-08T02:11:41;97214.87;;;14.98;100.0
64025;BME280;50266;57.446;26.936;2023-08-08T02:12:41;97204.67;;;14.98;100.0
64025;BME280;50266;57.446;26.936;2023-08-08T02:13:41;97212.28;;;14.97;100.0
64025;BME280;50266;57.446;26.936;2023-08-08T02:14:41;97214.92;;;14.95;100.0
64025;BME280;50266;57.446;26.936;2023-08-08T02:15:41;97214.19;;;14.94;100.0
64025;BME280;50266;57.446;26.936;2023-08-08T02:16:41;97216.78;;;14.98;100.0
64025;BME280;50266;57.446;26.936;2023-08-08T02:17:41;97232.73;;;15.0;100.0
64025;BME280;50266;57.446;26.936;2023-08-08T02:18:41;97222.82;;;14.97;100.0
64025;BME280;50266;57.446;26.936;2023-08-08T02:19:41;97235.36;;;14.97;100.0
64025;BME280;50266;57.446;26.936;2023-08-08T02:20:41;97234.84;;;14.98;100.0
64025;BME280;50266;57.446;26.936;2023-08-08T02:21:41;97243.53;;;14.93;100.0
64025;BME280;50266;57.446;26.936;2023-08-08T02:22:41;97246.55;;;14.98;100.0
64025;BME280;50266;57.446;26.936;2023-08-08T02:23:41;97250.88;;;14.95;100.0
64025;BME280;50266;57.446;26.936;2023-08-08T02:24:41;97252.89;;;14.94;100.0
64025;BME280;50266;57.446;26.936;2023-08-08T02:25:41;97252.59;;;14.9;100.0
64025;BME280;50266;57.446;26.936;2023-08-08T02:26:41;97251.75;;;14.9;100.0
64025;BME280;50266;57.446;26.936;2023-08-08T02:27:41;97255.54;;;14.88;100.0
64025;BME280;50266;57.446;26.936;2023-08-08T02:28:41;97259.37;;;14.9;100.0
64025;BME280;50266;57.446;26.936;2023-08-08T02:29:41;97260.64;;;14.88;100.0
64025;BME280;50266;57.446;26.936;2023-08-08T02:30:42;97267.09;;;14.87;100.0
64025;BME280;50266;57.446;26.936;2023-08-08T02:31:42;97262.48;;;14.87;100.0
64025;BME280;50266;57.446;26.936;2023-08-08T02:32:42;97271.81;;;14.9;100.0
64025;BME280;50266;57.446;26.936;2023-08-08T02:33:42;97270.52;;;14.86;100.0
64025;BME280;50266;57.446;26.936;2023-08-08T02:34:42;97275.7;;;14.86;100.0
64025;BME280;50266;57.446;26.936;2023-08-08T02:35:42;97266.64;;;14.89;100.0
64025;BME280;50266;57.446;26.936;2023-08-08T02:36:42;97278.8;;;14.86;100.0
64025;BME280;50266;57.446;26.936;2023-08-08T02:37:42;97279.53;;;14.87;100.0
64025;BME280;50266;57.446;26.936;2023-08-08T02:38:42;97274.45;;;14.86;100.0
64025;BME280;50266;57.446;26.936;2023-08-08T02:39:43;97280.38;;;14.86;100.0
64025;BME280;50266;57.446;26.936;2023-08-08T02:40:42;97281.7;;;14.88;100.0
64025;BME280;50266;57.446;26.936;2023-08-08T02:41:42;97284.59;;;14.92;100.0
64025;BME280;50266;57.446;26.936;2023-08-08T02:42:42;97286.56;;;14.86;100.0
64025;BME280;50266;57.446;26.936;2023-08-08T02:43:42;97287.42;;;14.84;100.0
64025;BME280;50266;57.446;26.936;2023-08-08T02:44:42;97292.55;;;14.81;100.0
64025;BME280;50266;57.446;26.936;2023-08-08T02:45:42;97293.98;;;14.79;100.0
64025;BME280;50266;57.446;26.936;2023-08-08T02:46:42;97304.14;;;14.83;100.0
64025;BME280;50266;57.446;26.936;2023-08-08T02:47:42;97309.52;;;14.79;100.0
64025;BME280;50266;57.446;26.936;2023-08-08T02:48:42;97305.23;;;14.82;100.0
64025;BME280;50266;57.446;26.936;2023-08-08T02:49:42;97311.17;;;14.82;100.0
64025;BME280;50266;57.446;26.936;2023-08-08T02:50:42;97311.03;;;14.88;100.0
64025;BME280;50266;57.446;26.936;2023-08-08T02:51:42;97314.36;;;14.8;100.0
64025;BME280;50266;57.446;26.936;2023-08-08T02:52:42;97315.45;;;14.79;100.0
64025;BME280;50266;57.446;26.936;2023-08-08T02:53:42;97318.95;;;14.82;100.0
64025;BME280;50266;57.446;26.936;2023-08-08T02:54:42;97325.99;;;14.78;100.0
64025;BME280;50266;57.446;26.936;2023-08-08T02:55:42;97326.22;;;14.64;100.0
64025;BME280;50266;57.446;26.936;2023-08-08T02:56:42;97329.5;;;14.61;100.0
64025;BME280;50266;57.446;26.936;2023-08-08T02:57:42;97328.43;;;14.59;100.0
64025;BME280;50266;57.446;26.936;2023-08-08T02:58:42;97335.19;;;14.54;100.0
64025;BME280;50266;57.446;26.936;2023-08-08T02:59:42;97332.09;;;14.54;100.0
64025;BME280;50266;57.446;26.936;2023-08-08T03:00:43;97343.05;;;14.6;100.0
64025;BME280;50266;57.446;26.936;2023-08-08T03:01:43;97341.98;;;14.48;100.0
64025;BME280;50266;57.446;26.936;2023-08-08T03:02:43;97346.55;;;14.52;100.0
64025;BME280;50266;57.446;26.936;2023-08-08T03:03:43;97342.22;;;14.51;100.0
64025;BME280;50266;57.446;26.936;2023-08-08T03:04:43;97345.47;;;14.53;100.0
64025;BME280;50266;57.446;26.936;2023-08-08T03:05:43;97341.26;;;14.45;100.0
64025;BME280;50266;57.446;26.936;2023-08-08T03:06:43;97344.58;;;14.48;100.0
64025;BME280;50266;57.446;26.936;2023-08-08T03:07:43;97343.33;;;14.48;100.0
64025;BME280;50266;57.446;26.936;2023-08-08T03:08:43;97347.44;;;14.45;100.0
64025;BME280;50266;57.446;26.936;2023-08-08T03:09:43;97348.2;;;14.42;100.0
64025;BME280;50266;57.446;26.936;2023-08-08T03:10:43;97353.64;;;14.41;100.0
64025;BME280;50266;57.446;26.936;2023-08-08T03:11:43;97351.3;;;14.38;100.0
64025;BME280;50266;57.446;26.936;2023-08-08T03:12:43;97355.56;;;14.41;100.0
64025;BME280;50266;57.446;26.936;2023-08-08T03:13:43;97357.64;;;14.37;100.0
64025;BME280;50266;57.446;26.936;2023-08-08T03:14:43;97356.97;;;14.37;100.0
64025;BME280;50266;57.446;26.936;2023-08-08T03:15:43;97357.85;;;14.49;100.0
64025;BME280;50266;57.446;26.936;2023-08-08T03:16:43;97359.94;;;14.57;100.0
64025;BME280;50266;57.446;26.936;2023-08-08T03:17:43;97356.27;;;14.48;100.0
64025;BME280;50266;57.446;26.936;2023-08-08T03:18:43;97362.36;;;14.5;100.0
64025;BME280;50266;57.446;26.936;2023-08-08T03:19:43;97365.7;;;14.49;100.0
64025;BME280;50266;57.446;26.936;2023-08-08T03:20:43;97371.48;;;14.47;100.0
64025;BME280;50266;57.446;26.936;2023-08-08T03:21:43;97368.47;;;14.48;100.0
64025;BME280;50266;57.446;26.936;2023-08-08T03:22:43;97376.81;;;14.49;100.0
64025;BME280;50266;57.446;26.936;2023-08-08T03:23:44;97378.77;;;14.42;100.0
64025;BME280;50266;57.446;26.936;2023-08-08T03:24:43;97376.42;;;14.44;100.0
64025;BME280;50266;57.446;26.936;2023-08-08T03:25:43;97384.94;;;14.45;100.0
64025;BME280;50266;57.446;26.936;2023-08-08T03:26:43;97385.52;;;14.46;100.0
64025;BME280;50266;57.446;26.936;2023-08-08T03:27:43;97386.05;;;14.42;100.0
64025;BME280;50266;57.446;26.936;2023-08-08T03:28:43;97388.3;;;14.41;100.0
64025;BME280;50266;57.446;26.936;2023-08-08T03:29:43;97388.29;;;14.43;100.0
64025;BME280;50266;57.446;26.936;2023-08-08T03:30:43;97389.54;;;14.44;100.0
64025;BME280;50266;57.446;26.936;2023-08-08T03:31:43;97391.7;;;14.45;100.0
64025;BME280;50266;57.446;26.936;2023-08-08T03:32:43;97392.05;;;14.43;100.0
64025;BME280;50266;57.446;26.936;2023-08-08T03:33:44;97398.59;;;14.52;100.0
64025;BME280;50266;57.446;26.936;2023-08-08T03:34:43;97396.68;;;14.51;100.0
64025;BME280;50266;57.446;26.936;2023-08-08T03:35:44;97402.31;;;14.46;100.0
64025;BME280;50266;57.446;26.936;2023-08-08T03:36:44;97396.7;;;14.48;100.0
64025;BME280;50266;57.446;26.936;2023-08-08T03:37:44;97398.13;;;14.4;100.0
64025;BME280;50266;57.446;26.936;2023-08-08T03:38:44;97395.22;;;14.38;100.0
64025;BME280;50266;57.446;26.936;2023-08-08T03:39:44;97404.08;;;14.42;100.0
64025;BME280;50266;57.446;26.936;2023-08-08T03:40:44;97402.37;;;14.5;100.0
64025;BME280;50266;57.446;26.936;2023-08-08T03:41:44;97396.2;;;14.46;100.0
64025;BME280;50266;57.446;26.936;2023-08-08T03:42:44;97403.64;;;14.48;100.0
64025;BME280;50266;57.446;26.936;2023-08-08T03:43:44;97406.3;;;14.49;100.0
64025;BME280;50266;57.446;26.936;2023-08-08T03:44:44;97407.38;;;14.52;100.0
64025;BME280;50266;57.446;26.936;2023-08-08T03:45:44;97413.27;;;14.42;100.0
64025;BME280;50266;57.446;26.936;2023-08-08T03:46:44;97424.78;;;14.45;100.0
64025;BME280;50266;57.446;26.936;2023-08-08T03:47:44;97414.73;;;14.51;100.0
64025;BME280;50266;57.446;26.936;2023-08-08T03:48:44;97418.72;;;14.53;100.0
64025;BME280;50266;57.446;26.936;2023-08-08T03:49:44;97423.36;;;14.46;100.0
64025;BME280;50266;57.446;26.936;2023-08-08T03:50:44;97422.12;;;14.43;100.0
64025;BME280;50266;57.446;26.936;2023-08-08T03:51:44;97424.69;;;14.48;100.0
64025;BME280;50266;57.446;26.936;2023-08-08T03:52:44;97430.88;;;14.44;100.0
64025;BME280;50266;57.446;26.936;2023-08-08T03:53:44;97432.03;;;14.49;100.0
64025;BME280;50266;57.446;26.936;2023-08-08T03:54:44;97425.78;;;14.39;100.0
64025;BME280;50266;57.446;26.936;2023-08-08T03:55:44;97432.98;;;14.42;100.0
64025;BME280;50266;57.446;26.936;2023-08-08T03:56:44;97439.31;;;14.44;100.0
64025;BME280;50266;57.446;26.936;2023-08-08T03:57:44;97438.87;;;14.51;100.0
64025;BME280;50266;57.446;26.936;2023-08-08T03:58:44;97438.8;;;14.49;100.0
64025;BME280;50266;57.446;26.936;2023-08-08T03:59:44;97442.58;;;14.42;100.0
64025;BME280;50266;57.446;26.936;2023-08-08T04:00:44;97444.34;;;14.43;100.0
64025;BME280;50266;57.446;26.936;2023-08-08T04:01:44;97450.0;;;14.47;100.0
64025;BME280;50266;57.446;26.936;2023-08-08T04:02:44;97449.84;;;14.39;100.0
64025;BME280;50266;57.446;26.936;2023-08-08T04:03:44;97451.01;;;14.45;100.0
64025;BME280;50266;57.446;26.936;2023-08-08T04:04:44;97459.95;;;14.36;100.0
64025;BME280;50266;57.446;26.936;2023-08-08T04:05:45;97461.46;;;14.42;100.0
64025;BME280;50266;57.446;26.936;2023-08-08T04:06:44;97459.03;;;14.44;100.0
64025;BME280;50266;57.446;26.936;2023-08-08T04:07:44;97456.12;;;14.42;100.0
64025;BME280;50266;57.446;26.936;2023-08-08T04:08:44;97464.7;;;14.4;100.0
64025;BME280;50266;57.446;26.936;2023-08-08T04:09:45;97481.06;;;14.39;100.0
64025;BME280;50266;57.446;26.936;2023-08-08T04:10:46;97469.64;;;14.42;100.0
64025;BME280;50266;57.446;26.936;2023-08-08T04:11:45;97477.5;;;14.43;100.0
64025;BME280;50266;57.446;26.936;2023-08-08T04:12:45;97475.21;;;14.5;100.0
64025;BME280;50266;57.446;26.936;2023-08-08T04:13:45;97479.98;;;14.58;100.0
64025;BME280;50266;57.446;26.936;2023-08-08T04:14:45;97479.36;;;14.54;100.0
64025;BME280;50266;57.446;26.936;2023-08-08T04:15:45;97481.14;;;14.59;100.0
64025;BME280;50266;57.446;26.936;2023-08-08T04:16:45;97487.55;;;14.66;100.0
64025;BME280;50266;57.446;26.936;2023-08-08T04:17:45;97481.31;;;14.48;100.0
64025;BME280;50266;57.446;26.936;2023-08-08T04:18:45;97482.25;;;14.56;100.0
64025;BME280;50266;57.446;26.936;2023-08-08T04:19:45;97483.48;;;14.59;100.0
64025;BME280;50266;57.446;26.936;2023-08-08T04:20:45;97490.25;;;14.59;100.0
64025;BME280;50266;57.446;26.936;2023-08-08T04:21:45;97492.65;;;14.66;100.0
64025;BME280;50266;57.446;26.936;2023-08-08T04:22:45;97493.55;;;14.69;100.0
64025;BME280;50266;57.446;26.936;2023-08-08T04:23:45;97495.58;;;14.63;100.0
64025;BME280;50266;57.446;26.936;2023-08-08T04:24:45;97493.52;;;14.58;100.0
64025;BME280;50266;57.446;26.936;2023-08-08T04:25:45;97502.44;;;14.62;100.0
64025;BME280;50266;57.446;26.936;2023-08-08T04:26:45;97502.95;;;14.59;100.0
64025;BME280;50266;57.446;26.936;2023-08-08T04:27:45;97500.62;;;14.58;100.0
64025;BME280;50266;57.446;26.936;2023-08-08T04:28:45;97505.47;;;14.58;100.0
64025;BME280;50266;57.446;26.936;2023-08-08T04:29:45;97502.69;;;14.63;100.0
64025;BME280;50266;57.446;26.936;2023-08-08T04:30:45;97514.31;;;14.58;100.0
64025;BME280;50266;57.446;26.936;2023-08-08T04:31:45;97509.55;;;14.61;100.0
64025;BME280;50266;57.446;26.936;2023-08-08T04:32:45;97513.28;;;14.65;100.0
64025;BME280;50266;57.446;26.936;2023-08-08T04:33:45;97515.39;;;14.61;100.0
64025;BME280;50266;57.446;26.936;2023-08-08T04:34:45;97525.51;;;14.59;100.0
64025;BME280;50266;57.446;26.936;2023-08-08T04:35:45;97498.27;;;14.61;100.0
64025;BME280;50266;57.446;26.936;2023-08-08T04:36:45;97526.5;;;14.49;100.0
64025;BME280;50266;57.446;26.936;2023-08-08T04:37:45;97531.54;;;14.56;100.0
64025;BME280;50266;57.446;26.936;2023-08-08T04:38:45;97532.96;;;14.55;100.0
64025;BME280;50266;57.446;26.936;2023-08-08T04:39:45;97533.92;;;14.51;100.0
64025;BME280;50266;57.446;26.936;2023-08-08T04:40:45;97537.62;;;14.58;100.0
64025;BME280;50266;57.446;26.936;2023-08-08T04:41:45;97545.16;;;14.55;100.0
64025;BME280;50266;57.446;26.936;2023-08-08T04:42:45;97543.62;;;14.61;100.0
64025;BME280;50266;57.446;26.936;2023-08-08T04:43:46;97543.23;;;14.57;100.0
64025;BME280;50266;57.446;26.936;2023-08-08T04:44:45;97544.48;;;14.56;100.0
64025;BME280;50266;57.446;26.936;2023-08-08T04:45:46;97551.91;;;14.58;100.0
64025;BME280;50266;57.446;26.936;2023-08-08T04:46:46;97551.16;;;14.57;100.0
64025;BME280;50266;57.446;26.936;2023-08-08T04:47:46;97561.61;;;14.56;100.0
64025;BME280;50266;57.446;26.936;2023-08-08T04:48:46;97552.98;;;14.49;100.0
64025;BME280;50266;57.446;26.936;2023-08-08T04:49:46;97562.75;;;14.51;100.0
64025;BME280;50266;57.446;26.936;2023-08-08T04:50:46;97565.83;;;14.67;100.0
64025;BME280;50266;57.446;26.936;2023-08-08T04:51:46;97565.44;;;14.62;100.0
64025;BME280;50266;57.446;26.936;2023-08-08T04:52:46;97564.94;;;14.62;100.0
64025;BME280;50266;57.446;26.936;2023-08-08T04:53:46;97566.77;;;14.61;100.0
64025;BME280;50266;57.446;26.936;2023-08-08T04:54:46;97569.55;;;14.55;100.0
64025;BME280;50266;57.446;26.936;2023-08-08T04:55:46;97573.77;;;14.51;100.0
64025;BME280;50266;57.446;26.936;2023-08-08T04:56:46;97575.31;;;14.56;100.0
64025;BME280;50266;57.446;26.936;2023-08-08T04:57:46;97576.04;;;14.47;100.0
64025;BME280;50266;57.446;26.936;2023-08-08T04:58:46;97580.05;;;14.47;100.0
64025;BME280;50266;57.446;26.936;2023-08-08T04:59:46;97585.12;;;14.53;100.0
64025;BME280;50266;57.446;26.936;2023-08-08T05:00:46;97583.39;;;14.48;100.0
64025;BME280;50266;57.446;26.936;2023-08-08T05:01:46;97583.81;;;14.45;100.0
64025;BME280;50266;57.446;26.936;2023-08-08T05:02:46;97589.74;;;14.48;100.0
64025;BME280;50266;57.446;26.936;2023-08-08T05:03:47;97593.16;;;14.48;100.0
64025;BME280;50266;57.446;26.936;2023-08-08T05:04:46;97596.67;;;14.46;100.0
64025;BME280;50266;57.446;26.936;2023-08-08T05:05:46;97599.35;;;14.45;100.0
64025;BME280;50266;57.446;26.936;2023-08-08T05:06:46;97603.38;;;14.41;100.0
64025;BME280;50266;57.446;26.936;2023-08-08T05:07:46;97602.27;;;14.49;100.0
64025;BME280;50266;57.446;26.936;2023-08-08T05:08:46;97604.09;;;14.52;100.0
64025;BME280;50266;57.446;26.936;2023-08-08T05:09:46;97609.52;;;14.52;100.0
64025;BME280;50266;57.446;26.936;2023-08-08T05:10:46;97609.45;;;14.46;100.0
64025;BME280;50266;57.446;26.936;2023-08-08T05:11:46;97613.64;;;14.43;100.0
64025;BME280;50266;57.446;26.936;2023-08-08T05:12:46;97614.14;;;14.41;100.0
64025;BME280;50266;57.446;26.936;2023-08-08T05:13:46;97619.91;;;14.41;100.0
64025;BME280;50266;57.446;26.936;2023-08-08T05:14:47;97615.38;;;14.38;100.0
64025;BME280;50266;57.446;26.936;2023-08-08T05:15:47;97617.31;;;14.47;100.0